Time;durP1;ratioP1;P1;durP2;ratioP2;P2;SDS_P1;SDS_P2;PMS_P1;PMS_P2;Temp;Humidity;BMP_temperature;BMP_pressure;BME280_temperature;BME280_humidity;BME280_pressure;Samples;Min_cycle;Max_cycle;Signal;HPM_P1;HPM_P2
2022/10/11 00:01:38;;;;;;;10.90;5.93;;;;;;;-145.49;100.00;62790.56;4949749;29;20493;-79
2022/10/11 00:04:08;;;;;;;7.57;5.07;;;;;;;-145.49;100.00;62790.56;4955796;28;20035;-78
2022/10/11 00:06:36;;;;;;;11.23;6.70;;;;;;;-145.49;100.00;62790.56;4942810;28;20035;-79
2022/10/11 00:09:06;;;;;;;13.50;7.95;;;;;;;-145.49;100.00;62790.56;4959604;28;20043;-79
2022/10/11 00:11:40;;;;;;;12.82;6.43;;;;;;;-145.49;100.00;62790.56;4955112;28;20042;-79
2022/10/11 00:14:08;;;;;;;14.40;8.00;;;;;;;-145.49;100.00;62790.56;4948642;29;20397;-79
2022/10/11 00:16:34;;;;;;;11.13;6.60;;;;;;;-145.49;100.00;62790.56;4972207;28;20038;-79
2022/10/11 00:19:03;;;;;;;14.65;7.47;;;;;;;-145.49;100.00;62790.56;4954451;28;20397;-79
2022/10/11 00:21:31;;;;;;;11.98;6.00;;;;;;;-145.49;100.00;62790.56;4955217;28;20043;-79
2022/10/11 00:24:00;;;;;;;13.48;7.05;;;;;;;-145.49;100.00;62790.56;4948434;29;20397;-79
2022/10/11 00:26:33;;;;;;;7.75;5.55;;;;;;;-145.49;100.00;62790.56;4960399;28;20489;-79
2022/10/11 00:29:02;;;;;;;12.15;6.60;;;;;;;-145.49;100.00;62790.56;4952878;28;20043;-78
2022/10/11 00:31:34;;;;;;;20.38;6.90;;;;;;;-145.49;100.00;62790.56;4949947;28;20031;-79
2022/10/11 00:34:04;;;;;;;10.40;5.43;;;;;;;-145.49;100.00;62790.56;4951584;28;20047;-79
2022/10/11 00:36:30;;;;;;;9.32;6.70;;;;;;;-145.49;100.00;62790.56;4967793;28;20046;-78
2022/10/11 00:39:02;;;;;;;7.88;6.63;;;;;;;-145.49;100.00;62790.56;4955095;28;20053;-79
2022/10/11 00:41:36;;;;;;;14.73;6.93;;;;;;;-145.49;100.00;62790.56;4963880;28;20035;-78
2022/10/11 00:44:18;;;;;;;8.35;5.63;;;;;;;-145.49;100.00;62790.56;4952275;28;20039;-78
2022/10/11 00:47:07;;;;;;;10.23;6.78;;;;;;;-145.49;100.00;62790.56;4967139;28;20433;-79
2022/10/11 00:49:43;;;;;;;9.23;6.82;;;;;;;-145.49;100.00;62790.56;4966759;28;20046;-78
2022/10/11 00:52:30;;;;;;;10.10;7.75;;;;;;;-145.49;100.00;62790.56;4951716;28;20486;-79
2022/10/11 00:55:02;;;;;;;10.40;6.35;;;;;;;-145.49;100.00;62790.56;4949049;28;20023;-78
2022/10/11 00:57:37;;;;;;;9.82;5.38;;;;;;;-145.49;100.00;62790.56;4951177;29;20039;-79
2022/10/11 01:00:09;;;;;;;9.35;4.75;;;;;;;-145.49;100.00;62790.56;4944791;28;20066;-79
2022/10/11 01:02:41;;;;;;;9.60;6.38;;;;;;;-145.49;100.00;62790.56;4956112;28;20050;-79
2022/10/11 01:05:12;;;;;;;9.13;6.75;;;;;;;-145.49;100.00;62790.56;4956283;28;20050;-79
2022/10/11 01:07:41;;;;;;;9.63;5.53;;;;;;;-145.49;100.00;62790.56;4950207;28;20039;-79
2022/10/11 01:10:10;;;;;;;9.10;6.50;;;;;;;-145.49;100.00;62790.56;4957871;28;20409;-79
2022/10/11 01:12:56;;;;;;;8.05;5.60;;;;;;;-145.49;100.00;62790.56;4956227;28;20425;-79
2022/10/11 01:15:36;;;;;;;14.23;5.78;;;;;;;-145.49;100.00;62790.56;4949707;28;20043;-79
2022/10/11 01:18:11;;;;;;;7.93;6.78;;;;;;;-145.49;100.00;62790.56;4947984;28;20049;-79
2022/10/11 01:21:10;;;;;;;13.23;7.72;;;;;;;-145.49;100.00;62790.56;4932595;28;20050;-79
2022/10/11 01:24:18;;;;;;;10.45;5.70;;;;;;;-145.49;100.00;62790.56;4944266;28;20406;-79
2022/10/11 01:27:11;;;;;;;7.97;5.82;;;;;;;-145.49;100.00;62790.56;4943795;28;20581;-79
2022/10/11 01:29:45;;;;;;;9.88;6.10;;;;;;;-145.49;100.00;62790.56;4931745;28;20055;-79
2022/10/11 01:32:18;;;;;;;12.27;8.15;;;;;;;-145.49;100.00;62790.56;4947147;28;20035;-79
2022/10/11 01:35:03;;;;;;;10.07;7.53;;;;;;;-145.49;100.00;62790.56;4948833;28;20039;-79
2022/10/11 01:37:59;;;;;;;9.40;6.63;;;;;;;-145.49;100.00;62790.56;4929088;29;20039;-79
2022/10/11 01:40:35;;;;;;;13.43;6.38;;;;;;;-145.49;100.00;62790.56;4946379;28;20069;-79
2022/10/11 01:43:09;;;;;;;9.93;7.38;;;;;;;-145.49;100.00;62790.56;4945082;28;20043;-79
2022/10/11 01:45:44;;;;;;;12.10;6.40;;;;;;;-145.49;100.00;62790.56;4950486;28;20405;-80
2022/10/11 01:48:12;;;;;;;8.10;5.60;;;;;;;-145.49;100.00;62790.56;4951259;28;20051;-79
2022/10/11 01:50:51;;;;;;;7.72;6.38;;;;;;;-145.49;100.00;62790.56;4958691;28;20035;-79
2022/10/11 01:53:39;;;;;;;17.52;7.57;;;;;;;-145.49;100.00;62790.56;4945077;28;20042;-79
2022/10/11 01:56:49;;;;;;;11.68;6.57;;;;;;;-145.49;100.00;62790.56;4947954;28;20043;-79
2022/10/11 01:59:35;;;;;;;12.63;8.00;;;;;;;-145.49;100.00;62790.56;4938018;28;20046;-79
2022/10/11 02:02:22;;;;;;;12.60;7.13;;;;;;;-145.49;100.00;62790.56;4947527;28;20073;-80
2022/10/11 02:04:57;;;;;;;6.75;5.00;;;;;;;-145.49;100.00;62790.56;4958704;28;20035;-80
2022/10/11 02:07:31;;;;;;;12.27;6.88;;;;;;;-145.49;100.00;62790.56;4951339;28;20039;-80
2022/10/11 02:10:21;;;;;;;11.57;5.25;;;;;;;-145.49;100.00;62790.56;4951111;29;20035;-80
2022/10/11 02:12:56;;;;;;;11.98;7.32;;;;;;;-145.49;100.00;62790.56;4954461;28;20420;-80
2022/10/11 02:15:29;;;;;;;17.27;8.82;;;;;;;-145.49;100.00;62790.56;4958130;28;20034;-79
2022/10/11 02:17:59;;;;;;;12.15;8.63;;;;;;;-145.49;100.00;62790.56;4973082;28;20088;-79
2022/10/11 02:20:33;;;;;;;10.27;8.15;;;;;;;-145.49;100.00;62790.56;4952979;29;20039;-80
2022/10/11 02:23:15;;;;;;;9.70;7.88;;;;;;;-145.49;100.00;62790.56;4959261;28;20046;-80
2022/10/11 02:25:44;;;;;;;12.27;8.85;;;;;;;-145.49;100.00;62790.56;4963604;28;20031;-80
2022/10/11 02:28:23;;;;;;;8.77;6.28;;;;;;;-145.49;100.00;62790.56;4952577;28;20043;-80
2022/10/11 02:30:51;;;;;;;10.00;8.32;;;;;;;-145.49;100.00;62790.56;4934805;29;20039;-80
2022/10/11 02:33:25;;;;;;;13.73;6.97;;;;;;;-145.49;100.00;62790.56;4964121;28;20047;-79
2022/10/11 02:35:58;;;;;;;11.52;6.43;;;;;;;-145.49;100.00;62790.56;4946557;28;20058;-79
2022/10/11 02:38:31;;;;;;;8.13;6.03;;;;;;;-145.49;100.00;62790.56;4962532;28;20035;-80
2022/10/11 02:41:05;;;;;;;19.80;6.88;;;;;;;-145.49;100.00;62790.56;4954266;29;20401;-79
2022/10/11 02:43:41;;;;;;;7.72;6.43;;;;;;;-145.49;100.00;62790.56;4958592;28;20039;-79
2022/10/11 02:46:11;;;;;;;9.60;5.82;;;;;;;-145.49;100.00;62790.56;4965555;28;20035;-79
2022/10/11 02:48:42;;;;;;;10.70;6.70;;;;;;;-145.49;100.00;62790.56;4956394;28;20401;-80
2022/10/11 02:51:12;;;;;;;10.80;6.15;;;;;;;-145.49;100.00;62790.56;4954748;28;20050;-79
2022/10/11 02:53:38;;;;;;;10.75;5.85;;;;;;;-145.49;100.00;62790.56;4952012;28;21221;-79
2022/10/11 02:56:07;;;;;;;12.30;6.43;;;;;;;-145.49;100.00;62790.56;4962163;28;20039;-79
2022/10/11 02:58:35;;;;;;;7.03;4.60;;;;;;;-145.49;100.00;62790.56;4954288;28;20375;-79
2022/10/11 03:01:11;;;;;;;11.30;6.22;;;;;;;-145.49;100.00;62790.56;4934629;28;20509;-79
2022/10/11 03:03:40;;;;;;;8.10;5.65;;;;;;;-145.49;100.00;62790.56;4933409;28;20034;-79
2022/10/11 03:06:11;;;;;;;11.45;5.45;;;;;;;-145.49;100.00;62790.56;4929317;29;20046;-79
2022/10/11 03:08:39;;;;;;;6.68;4.78;;;;;;;-145.49;100.00;62790.56;4946391;28;20042;-80
2022/10/11 03:11:10;;;;;;;7.35;6.10;;;;;;;-145.49;100.00;62790.56;4953048;28;20393;-80
2022/10/11 03:13:37;;;;;;;13.35;7.25;;;;;;;-145.49;100.00;62790.56;4950693;29;20517;-80
2022/10/11 03:16:03;;;;;;;6.45;5.63;;;;;;;-145.49;100.00;62790.56;4961292;28;20054;-80
2022/10/11 03:18:30;;;;;;;10.20;5.93;;;;;;;-145.49;100.00;62790.56;4950063;28;20027;-80
2022/10/11 03:20:58;;;;;;;9.63;7.15;;;;;;;-145.49;100.00;62790.56;4961797;28;20115;-80
2022/10/11 03:23:29;;;;;;;9.68;6.00;;;;;;;-145.49;100.00;62790.56;4947829;28;20038;-80
2022/10/11 03:25:57;;;;;;;6.25;5.10;;;;;;;-145.49;100.00;62790.56;4954812;28;20035;-80
2022/10/11 03:28:28;;;;;;;13.98;5.70;;;;;;;-145.49;100.00;62790.56;4957499;28;20043;-79
2022/10/11 03:30:57;;;;;;;7.13;5.55;;;;;;;-145.49;100.00;62790.56;4954402;28;20437;-80
2022/10/11 03:33:25;;;;;;;10.50;6.80;;;;;;;-145.49;100.00;62790.56;4951930;28;20486;-80
2022/10/11 03:35:59;;;;;;;6.63;5.22;;;;;;;-145.49;100.00;62790.56;4951263;29;20047;-80
2022/10/11 03:38:35;;;;;;;7.65;5.90;;;;;;;-145.49;100.00;62790.56;4949857;28;20399;-80
2022/10/11 03:41:02;;;;;;;11.80;6.80;;;;;;;-145.49;100.00;62790.56;4963955;28;20401;-80
2022/10/11 03:43:30;;;;;;;17.20;9.00;;;;;;;-145.49;100.00;62790.56;4957977;28;20039;-80
2022/10/11 03:45:59;;;;;;;7.63;6.22;;;;;;;-145.49;100.00;62790.56;4952111;29;20035;-79
2022/10/11 03:48:28;;;;;;;10.40;5.97;;;;;;;-145.49;100.00;62790.56;4952081;28;20039;-79
2022/10/11 03:50:56;;;;;;;11.00;5.82;;;;;;;-145.49;100.00;62790.56;4952814;28;20485;-80
2022/10/11 03:53:23;;;;;;;9.27;5.40;;;;;;;-145.49;100.00;62790.56;4930986;29;20047;-79
2022/10/11 03:55:53;;;;;;;11.73;6.57;;;;;;;-145.49;100.00;62790.56;4949168;28;20382;-80
2022/10/11 03:58:20;;;;;;;9.07;6.45;;;;;;;-145.49;100.00;62790.56;4950767;28;20066;-80
2022/10/11 04:00:52;;;;;;;16.00;7.45;;;;;;;-145.49;100.00;62790.56;4949561;28;20035;-79
2022/10/11 04:03:21;;;;;;;10.77;5.85;;;;;;;-145.49;100.00;62790.56;4964820;28;20060;-79
2022/10/11 04:05:47;;;;;;;11.38;6.40;;;;;;;-145.49;100.00;62790.56;4947102;28;20035;-79
2022/10/11 04:08:18;;;;;;;8.00;5.10;;;;;;;-145.49;100.00;62790.56;4950491;28;20035;-79
2022/10/11 04:10:47;;;;;;;19.10;7.07;;;;;;;-145.49;100.00;62790.56;4948875;28;20401;-79
2022/10/11 04:13:13;;;;;;;15.85;7.00;;;;;;;-145.49;100.00;62790.56;4953238;28;20046;-79
2022/10/11 04:15:45;;;;;;;10.57;6.57;;;;;;;-145.49;100.00;62790.56;4957516;28;20038;-79
2022/10/11 04:18:16;;;;;;;11.80;6.93;;;;;;;-145.49;100.00;62790.56;4950657;28;20512;-79
2022/10/11 04:20:44;;;;;;;14.07;8.27;;;;;;;-145.49;100.00;62790.56;4945259;28;20043;-80
2022/10/11 04:23:17;;;;;;;10.32;7.05;;;;;;;-145.49;100.00;62790.56;4951589;28;20042;-80
2022/10/11 04:25:44;;;;;;;7.20;5.90;;;;;;;-145.49;100.00;62790.56;4949921;28;20047;-80
2022/10/11 04:28:15;;;;;;;14.38;8.57;;;;;;;-145.49;100.00;62790.56;4948002;28;20027;-80
2022/10/11 04:30:46;;;;;;;10.43;9.35;;;;;;;-145.49;100.00;62790.56;4956980;28;20039;-80
2022/10/11 04:33:14;;;;;;;;;;;;;;;-145.49;100.00;62790.56;4950344;29;20035;-80
2022/10/11 04:35:45;;;;;;;16.35;7.70;;;;;;;-145.49;100.00;62790.56;4952136;28;19914;-79
2022/10/11 04:38:16;;;;;;;10.65;7.95;;;;;;;-145.49;100.00;62790.56;4961544;28;20046;-80
2022/10/11 04:40:45;;;;;;;14.10;8.30;;;;;;;-145.49;100.00;62790.56;4946701;28;20047;-80
2022/10/11 04:43:11;;;;;;;16.33;10.02;;;;;;;-145.49;100.00;62790.56;4942128;28;20035;-80
2022/10/11 04:45:42;;;;;;;22.05;11.13;;;;;;;-145.49;100.00;62790.56;4951024;28;20074;-80
2022/10/11 04:48:13;;;;;;;15.63;8.35;;;;;;;-145.49;100.00;62790.56;4952367;28;20038;-80
2022/10/11 04:50:46;;;;;;;15.73;8.27;;;;;;;-145.49;100.00;62790.56;4959784;28;20043;-80
2022/10/11 04:53:15;;;;;;;14.77;10.38;;;;;;;-145.49;100.00;62790.56;4941917;29;20043;-79
2022/10/11 04:55:41;;;;;;;15.90;11.63;;;;;;;-145.49;100.00;62790.56;4950738;29;20042;-79
2022/10/11 04:58:12;;;;;;;17.73;9.43;;;;;;;-145.49;100.00;62790.56;4953216;29;20039;-79
2022/10/11 05:00:38;;;;;;;12.27;9.40;;;;;;;-145.49;100.00;62790.56;4961016;28;20053;-79
2022/10/11 05:03:04;;;;;;;17.38;8.68;;;;;;;-145.49;100.00;62790.56;4950342;29;20043;-78
2022/10/11 05:05:32;;;;;;;12.70;10.70;;;;;;;-145.49;100.00;62790.56;4953402;28;20405;-79
2022/10/11 05:08:03;;;;;;;14.75;8.68;;;;;;;-145.49;100.00;62790.56;4955306;28;20039;-78
2022/10/11 05:10:34;;;;;;;12.55;7.97;;;;;;;-145.49;100.00;62790.56;4958721;28;20039;-79
2022/10/11 05:13:05;;;;;;;10.82;7.45;;;;;;;-145.49;100.00;62790.56;4939677;29;20429;-78
2022/10/11 05:15:36;;;;;;;12.40;9.77;;;;;;;-145.49;100.00;62790.56;4950630;28;20050;-79
2022/10/11 05:18:05;;;;;;;13.65;8.48;;;;;;;-145.49;100.00;62790.56;4956269;28;20035;-78
2022/10/11 05:20:33;;;;;;;10.82;7.53;;;;;;;-145.49;100.00;62790.56;4951050;28;20035;-77
2022/10/11 05:23:01;;;;;;;18.45;10.70;;;;;;;-145.49;100.00;62790.56;4950214;28;20402;-79
2022/10/11 05:25:33;;;;;;;10.38;8.45;;;;;;;-145.49;100.00;62790.56;4951654;28;20035;-79
2022/10/11 05:28:01;;;;;;;11.27;9.40;;;;;;;-145.49;100.00;62790.56;4955718;28;20397;-81
2022/10/11 05:30:32;;;;;;;12.05;9.70;;;;;;;-145.49;100.00;62790.56;4933005;29;20482;-79
2022/10/11 05:32:58;;;;;;;13.50;9.35;;;;;;;-145.49;100.00;62790.56;4968044;28;20041;-79
2022/10/11 05:35:27;;;;;;;9.52;8.10;;;;;;;-145.49;100.00;62790.56;4953147;28;20054;-78
2022/10/11 05:37:56;;;;;;;13.38;8.55;;;;;;;-145.49;100.00;62790.56;4952397;28;20061;-80
2022/10/11 05:40:26;;;;;;;15.60;8.60;;;;;;;-145.49;100.00;62790.56;4987676;23;20038;-70
2022/10/11 05:42:52;;;;;;;12.07;8.60;;;;;;;-145.49;100.00;62790.56;4968464;28;20039;-71
2022/10/11 05:45:21;;;;;;;12.57;8.73;;;;;;;-145.49;100.00;62790.56;4972757;28;20277;-70
2022/10/11 05:47:47;;;;;;;13.30;10.15;;;;;;;-145.49;100.00;62790.56;4985569;28;20497;-71
2022/10/11 05:50:13;;;;;;;13.65;9.05;;;;;;;-145.49;100.00;62790.56;4986549;28;20031;-72
2022/10/11 05:52:44;;;;;;;11.25;8.63;;;;;;;-145.49;100.00;62790.56;4957270;29;20426;-71
2022/10/11 05:55:13;;;;;;;15.85;10.27;;;;;;;-145.49;100.00;62790.56;4955826;29;20039;-71
2022/10/11 05:57:39;;;;;;;11.82;7.72;;;;;;;-145.49;100.00;62790.56;4957185;28;20391;-71
2022/10/11 06:00:08;;;;;;;9.23;6.68;;;;;;;-145.49;100.00;62790.56;4955445;29;20031;-71
2022/10/11 06:02:40;;;;;;;13.60;7.50;;;;;;;-145.49;100.00;62790.56;4956612;29;20050;-71
2022/10/11 06:05:07;;;;;;;11.32;7.30;;;;;;;-145.49;100.00;62790.56;4956939;29;20062;-71
2022/10/11 06:07:37;;;;;;;10.68;9.07;;;;;;;-145.49;100.00;62790.56;4938993;29;20039;-71
2022/10/11 06:10:08;;;;;;;15.45;9.27;;;;;;;-145.49;100.00;62790.56;4950107;28;20039;-72
2022/10/11 06:12:39;;;;;;;12.80;8.70;;;;;;;-145.49;100.00;62790.56;4956249;28;20048;-71
2022/10/11 06:15:10;;;;;;;11.93;8.07;;;;;;;-145.49;100.00;62790.56;4956574;29;20043;-71
2022/10/11 06:17:36;;;;;;;9.90;8.55;;;;;;;-145.49;100.00;62790.56;4956295;28;20049;-71
2022/10/11 06:20:03;;;;;;;13.65;8.70;;;;;;;-145.49;100.00;62790.56;4971041;28;20038;-71
2022/10/11 06:22:29;;;;;;;12.95;9.73;;;;;;;-145.49;100.00;62790.56;4938983;29;20043;-71
2022/10/11 06:25:01;;;;;;;14.23;9.10;;;;;;;-145.49;100.00;62790.56;4970904;28;20544;-71
2022/10/11 06:27:29;;;;;;;11.52;7.70;;;;;;;-145.49;100.00;62790.56;4956059;28;20050;-71
2022/10/11 06:30:00;;;;;;;14.52;8.20;;;;;;;-145.49;100.00;62790.56;4972118;28;20506;-72
2022/10/11 06:32:31;;;;;;;11.30;7.90;;;;;;;-145.49;100.00;62790.56;4956337;29;20134;-72
2022/10/11 06:35:02;;;;;;;11.60;8.85;;;;;;;-145.49;100.00;62790.56;4956691;29;20425;-72
2022/10/11 06:37:30;;;;;;;10.18;7.43;;;;;;;-145.49;100.00;62790.56;4954999;29;20050;-72
2022/10/11 06:39:57;;;;;;;14.52;10.57;;;;;;;-145.49;100.00;62790.56;4971231;28;20027;-72
2022/10/11 06:42:23;;;;;;;11.20;7.25;;;;;;;-145.49;100.00;62790.56;4987264;28;20046;-70
2022/10/11 06:44:54;;;;;;;12.63;8.35;;;;;;;-145.49;100.00;62790.56;4956375;29;20046;-70
2022/10/11 06:47:20;;;;;;;15.43;9.70;;;;;;;-145.49;100.00;62790.56;4955815;29;20035;-71
2022/10/11 06:49:51;;;;;;;13.75;10.02;;;;;;;-145.49;100.00;62790.56;4955309;28;20035;-71
2022/10/11 06:52:19;;;;;;;14.32;8.20;;;;;;;-145.49;100.00;62790.56;4959862;28;20047;-72
2022/10/11 06:54:48;;;;;;;10.73;8.40;;;;;;;-145.49;100.00;62790.56;4955547;29;20594;-71
2022/10/11 06:57:14;;;;;;;13.02;8.90;;;;;;;-145.49;100.00;62790.56;4955830;29;20043;-72
2022/10/11 06:59:42;;;;;;;13.88;9.05;;;;;;;-145.49;100.00;62790.56;4956313;28;20042;-72
2022/10/11 07:02:09;;;;;;;18.42;10.50;;;;;;;-145.49;100.00;62790.56;4962283;28;20050;-72
2022/10/11 07:04:39;;;;;;;16.92;8.88;;;;;;;-145.49;100.00;62790.56;4955807;29;20042;-72
2022/10/11 07:07:05;;;;;;;16.85;10.50;;;;;;;-145.49;100.00;62790.56;4955869;29;20498;-72
2022/10/11 07:09:33;;;;;;;15.05;12.07;;;;;;;-145.49;100.00;62790.56;4970118;28;20040;-72
2022/10/11 07:11:59;;;;;;;12.20;8.02;;;;;;;-145.49;100.00;62790.56;4954956;28;20031;-72
2022/10/11 07:14:27;;;;;;;12.88;8.95;;;;;;;-145.49;100.00;62790.56;4955446;29;20031;-72
2022/10/11 07:16:54;;;;;;;12.50;8.10;;;;;;;-145.49;100.00;62790.56;4955438;29;20379;-72
2022/10/11 07:19:24;;;;;;;11.25;8.65;;;;;;;-145.49;100.00;62790.56;4955570;29;20389;-72
2022/10/11 07:21:52;;;;;;;12.00;8.93;;;;;;;-145.49;100.00;62790.56;4969755;28;20413;-72
2022/10/11 07:24:19;;;;;;;11.02;8.68;;;;;;;-145.49;100.00;62790.56;4955483;29;20043;-72
2022/10/11 07:26:47;;;;;;;11.77;7.22;;;;;;;-145.49;100.00;62790.56;4969938;28;20053;-72
2022/10/11 07:29:18;;;;;;;11.07;7.65;;;;;;;-145.49;100.00;62790.56;4969896;28;20047;-72
2022/10/11 07:31:47;;;;;;;21.30;9.35;;;;;;;-145.49;100.00;62790.56;4956058;28;20046;-72
2022/10/11 07:34:13;;;;;;;10.40;8.02;;;;;;;-145.49;100.00;62790.56;4955274;29;20043;-70
2022/10/11 07:36:41;;;;;;;11.80;9.02;;;;;;;-145.49;100.00;62790.56;4955420;28;20035;-71
2022/10/11 07:39:10;;;;;;;9.70;7.18;;;;;;;-145.49;100.00;62790.56;4953829;28;20050;-71
2022/10/11 07:41:38;;;;;;;11.43;7.18;;;;;;;-145.49;100.00;62790.56;4953549;28;20046;-70
2022/10/11 07:44:04;;;;;;;18.08;9.02;;;;;;;-145.49;100.00;62790.56;4956252;28;20031;-71
2022/10/11 07:46:37;;;;;;;9.45;6.78;;;;;;;-145.49;100.00;62790.56;4953936;29;20050;-71
2022/10/11 07:49:03;;;;;;;11.30;7.18;;;;;;;-145.49;100.00;62790.56;4985801;28;20512;-70
2022/10/11 07:51:32;;;;;;;11.82;7.60;;;;;;;-145.49;100.00;62790.56;4954961;29;20106;-72
2022/10/11 07:53:58;;;;;;;12.93;7.35;;;;;;;-145.49;100.00;62790.56;4955555;28;20039;-71
2022/10/11 07:56:28;;;;;;;10.88;8.70;;;;;;;-145.49;100.00;62790.56;4953630;28;20039;-72
2022/10/11 07:59:02;;;;;;;10.10;7.20;;;;;;;-145.49;100.00;62790.56;4954690;29;20039;-72
2022/10/11 08:01:34;;;;;;;7.82;5.95;;;;;;;-145.49;100.00;62790.56;4953572;29;20046;-71
2022/10/11 08:04:00;;;;;;;12.30;7.10;;;;;;;-145.49;100.00;62790.56;4969876;28;20035;-71
2022/10/11 08:06:31;;;;;;;11.73;7.45;;;;;;;-145.49;100.00;62790.56;4969597;28;20061;-71
2022/10/11 08:08:58;;;;;;;6.57;5.53;;;;;;;-145.49;100.00;62790.56;4954515;29;20043;-71
2022/10/11 08:11:33;;;;;;;10.07;6.57;;;;;;;-145.49;100.00;62790.56;4954577;29;20039;-71
2022/10/11 08:17:01;;;;;;;8.85;6.18;;;;;;;-145.49;100.00;62790.56;4948213;28;20051;-71
2022/10/11 08:19:35;;;;;;;8.23;6.40;;;;;;;-145.49;100.00;62790.56;4954255;29;20035;-71
2022/10/11 08:22:02;;;;;;;11.00;6.13;;;;;;;-145.49;100.00;62790.56;4956744;28;20039;-71
2022/10/11 08:24:33;;;;;;;12.70;7.53;;;;;;;-145.49;100.00;62790.56;4959287;28;20054;-71
2022/10/11 08:27:04;;;;;;;10.23;6.45;;;;;;;-145.49;100.00;62790.56;4942779;29;20145;-71
2022/10/11 08:29:33;;;;;;;11.20;6.70;;;;;;;-145.49;100.00;62790.56;4933660;29;20040;-70
2022/10/11 08:32:01;;;;;;;13.07;7.00;;;;;;;-145.49;100.00;62790.56;4942622;28;20046;-71
2022/10/11 08:34:27;;;;;;;9.98;6.18;;;;;;;-145.49;100.00;62790.56;4961087;28;20054;-71
2022/10/11 08:36:56;;;;;;;8.32;6.03;;;;;;;-145.49;100.00;62790.56;4954214;29;20039;-71
2022/10/11 08:39:27;;;;;;;11.80;7.07;;;;;;;-145.49;100.00;62790.56;4984816;28;20031;-71
2022/10/11 08:41:59;;;;;;;15.50;6.43;;;;;;;-145.49;100.00;62790.56;4952660;28;20563;-71
2022/10/11 08:44:31;;;;;;;12.75;6.82;;;;;;;-145.49;100.00;62790.56;4954226;29;20043;-71
2022/10/11 08:47:05;;;;;;;9.02;5.93;;;;;;;-145.49;100.00;62790.56;4954132;29;20516;-71
2022/10/11 08:49:35;;;;;;;10.40;5.75;;;;;;;-145.49;100.00;62790.56;4968779;28;20043;-70
2022/10/11 08:52:19;;;;;;;8.63;5.97;;;;;;;-145.49;100.00;62790.56;4953533;28;20490;-71
2022/10/11 08:55:04;;;;;;;8.68;6.43;;;;;;;-145.49;100.00;62790.56;4982930;28;20042;-71
2022/10/11 08:57:34;;;;;;;7.93;6.38;;;;;;;-145.49;100.00;62790.56;4954005;29;20035;-71
2022/10/11 09:00:07;;;;;;;8.15;6.57;;;;;;;-145.49;100.00;62790.56;4984390;28;20039;-71
2022/10/11 09:03:06;;;;;;;11.98;6.30;;;;;;;-145.49;100.00;62790.56;4953379;28;20051;-71
2022/10/11 09:05:35;;;;;;;8.88;5.25;;;;;;;-145.49;100.00;62790.56;4952643;29;20043;-71
2022/10/11 09:08:33;;;;;;;8.18;4.85;;;;;;;-145.49;100.00;62790.56;4949300;29;20051;-71
2022/10/11 09:11:14;;;;;;;7.50;6.63;;;;;;;-145.49;100.00;62790.56;4933804;28;20538;-71
2022/10/11 09:13:57;;;;;;;6.57;5.65;;;;;;;-145.49;100.00;62790.56;4939854;28;20042;-71
2022/10/11 09:16:47;;;;;;;11.63;7.05;;;;;;;-145.49;100.00;62790.56;4952994;28;20046;-71
2022/10/11 09:19:35;;;;;;;8.75;4.75;;;;;;;-145.49;100.00;62790.56;4953583;29;20039;-71
2022/10/11 09:22:24;;;;;;;6.30;5.57;;;;;;;-145.49;100.00;62790.56;4968394;28;20039;-71
2022/10/11 09:25:28;;;;;;;7.75;4.60;;;;;;;-145.49;100.00;62790.56;4955486;28;20031;-71
2022/10/11 09:28:22;;;;;;;10.15;5.22;;;;;;;-145.49;100.00;62790.56;4968576;28;20043;-71
2022/10/11 09:30:54;;;;;;;7.40;5.28;;;;;;;-145.49;100.00;62790.56;4952004;29;20039;-72
2022/10/11 09:33:43;;;;;;;4.70;3.88;;;;;;;-145.49;100.00;62790.56;4953754;29;20452;-71
2022/10/11 09:36:24;;;;;;;7.15;4.57;;;;;;;-145.49;100.00;62790.56;4954194;28;20039;-71
2022/10/11 09:39:12;;;;;;;5.85;4.95;;;;;;;-145.49;100.00;62790.56;4951995;28;20039;-72
2022/10/11 09:42:04;;;;;;;5.45;4.72;;;;;;;-145.49;100.00;62790.56;4953364;29;20038;-72
2022/10/11 09:44:38;;;;;;;;;;;;;;;-145.49;100.00;62790.56;4953478;28;20047;-72
2022/10/11 09:47:12;;;;;;;5.93;3.92;;;;;;;-145.49;100.00;62790.56;4953202;28;20292;-72
2022/10/11 09:50:14;;;;;;;7.10;4.60;;;;;;;-145.49;100.00;62790.56;4953239;29;20520;-71
2022/10/11 09:52:54;;;;;;;7.93;3.72;;;;;;;-145.49;100.00;62790.56;4952568;28;20051;-72
2022/10/11 09:55:49;;;;;;;4.53;3.80;;;;;;;-145.49;100.00;62790.56;4952895;28;20035;-72
2022/10/11 09:58:41;;;;;;;10.73;4.82;;;;;;;-145.49;100.00;62790.56;4950299;29;20393;-71
2022/10/11 10:01:12;;;;;;;4.80;3.33;;;;;;;-145.49;100.00;62790.56;4968677;28;20089;-72
2022/10/11 10:03:45;;;;;;;9.43;4.43;;;;;;;-145.49;100.00;62790.56;4968587;28;20482;-72
2022/10/11 10:06:16;;;;;;;4.68;3.45;;;;;;;-145.49;100.00;62790.56;4955906;28;20389;-72
2022/10/11 10:08:45;;;;;;;6.90;4.45;;;;;;;-145.49;100.00;62790.56;4955779;28;20035;-72
2022/10/11 10:11:14;;;;;;;7.15;3.95;;;;;;;-145.49;100.00;62790.56;4952663;29;20050;-72
2022/10/11 10:13:51;;;;;;;5.90;3.67;;;;;;;-145.49;100.00;62790.56;4958577;29;20027;-71
2022/10/11 10:16:27;;;;;;;5.10;3.22;;;;;;;-145.49;100.00;62790.56;4959193;28;20043;-71
2022/10/11 10:19:02;;;;;;;6.18;3.85;;;;;;;-145.49;100.00;62790.56;4979191;28;20027;-71
2022/10/11 10:21:37;;;;;;;5.03;3.63;;;;;;;-145.49;100.00;62790.56;4958335;28;20034;-72
2022/10/11 10:24:21;;;;;;;7.07;4.10;;;;;;;-145.49;100.00;62790.56;4946369;29;20508;-71
2022/10/11 10:27:09;;;;;;;7.40;3.78;;;;;;;-145.49;100.00;62790.56;4951883;28;20035;-71
2022/10/11 10:29:40;;;;;;;5.63;4.18;;;;;;;-145.49;100.00;62790.56;4955873;29;20050;-71
2022/10/11 10:32:12;;;;;;;4.30;3.53;;;;;;;-145.49;100.00;62790.56;4956855;28;20053;-71
2022/10/11 10:34:56;;;;;;;6.20;3.78;;;;;;;-145.49;100.00;62790.56;4956531;29;20050;-71
2022/10/11 10:37:52;;;;;;;6.30;3.65;;;;;;;-145.49;100.00;62790.56;4956203;29;20035;-71
2022/10/11 10:40:26;;;;;;;5.57;4.00;;;;;;;-145.49;100.00;62790.56;4956617;29;20035;-71
2022/10/11 10:42:57;;;;;;;6.03;3.88;;;;;;;-145.49;100.00;62790.56;4970445;28;20042;-71
2022/10/11 10:45:41;;;;;;;8.68;3.92;;;;;;;-145.49;100.00;62790.56;4955953;29;20046;-71
2022/10/11 10:48:43;;;;;;;5.50;4.07;;;;;;;-145.49;100.00;62790.56;4956117;29;20046;-71
2022/10/11 10:51:28;;;;;;;6.07;5.30;;;;;;;-145.49;100.00;62790.56;4970460;28;20047;-70
2022/10/11 10:54:00;;;;;;;7.05;5.28;;;;;;;-145.49;100.00;62790.56;4962507;28;20521;-71
2022/10/11 10:56:51;;;;;;;8.13;5.35;;;;;;;-145.49;100.00;62790.56;4971925;28;20054;-71
2022/10/11 10:59:37;;;;;;;5.65;4.35;;;;;;;-145.49;100.00;62790.56;4951284;29;20044;-71
2022/10/11 11:02:15;;;;;;;6.60;4.32;;;;;;;-145.49;100.00;62790.56;4936838;29;20043;-71
2022/10/11 11:04:56;;;;;;;4.80;4.05;;;;;;;-145.49;100.00;62790.56;4951762;28;20043;-72
2022/10/11 11:07:31;;;;;;;9.00;4.82;;;;;;;-145.49;100.00;62790.56;4955708;29;20054;-70
2022/10/11 11:10:04;;;;;;;6.25;4.78;;;;;;;-145.49;100.00;62790.56;4970464;28;20124;-71
2022/10/11 11:12:35;;;;;;;7.85;5.03;;;;;;;-145.49;100.00;62790.56;4955771;29;20391;-71
2022/10/11 11:15:19;;;;;;;4.28;3.88;;;;;;;-145.49;100.00;62790.56;4960162;28;20043;-71
2022/10/11 11:17:54;;;;;;;6.70;4.05;;;;;;;-145.49;100.00;62790.56;4955507;29;20504;-71
2022/10/11 11:20:45;;;;;;;6.72;4.00;;;;;;;-145.49;100.00;62790.56;4955310;29;20035;-71
2022/10/11 11:23:14;;;;;;;5.47;4.18;;;;;;;-145.49;100.00;62790.56;4955513;29;20429;-71
2022/10/11 11:26:13;;;;;;;9.95;4.55;;;;;;;-145.49;100.00;62790.56;4956141;28;20043;-72
2022/10/11 11:28:59;;;;;;;5.50;3.60;;;;;;;-145.49;100.00;62790.56;4934111;29;20059;-72
2022/10/11 11:31:36;;;;;;;7.45;4.32;;;;;;;-145.49;100.00;62790.56;4935042;29;20111;-72
2022/10/11 11:34:27;;;;;;;5.57;3.95;;;;;;;-145.49;100.00;62790.56;4950969;28;20035;-72
2022/10/11 11:36:58;;;;;;;8.52;4.35;;;;;;;-145.49;100.00;62790.56;4985890;28;20043;-71